createdAt,value
2022-09-17T00:03:55.685Z,11.96
2022-09-17T00:08:58.481Z,11.86
2022-09-17T00:14:03.579Z,11.95
2022-09-17T00:19:10.138Z,11.71
2022-09-17T00:24:14.238Z,11.71
2022-09-17T00:29:17.206Z,11.66
2022-09-17T00:34:23.955Z,11.77
2022-09-17T00:39:26.508Z,11.78
2022-09-17T00:44:46.116Z,11.69
2022-09-17T00:49:53.358Z,11.63
2022-09-17T00:55:01.352Z,11.66
2022-09-17T01:00:06.426Z,11.86
2022-09-17T01:05:12.090Z,12.01
2022-09-17T01:10:27.608Z,11.74
2022-09-17T01:15:37.267Z,12.02
2022-09-17T01:21:08.253Z,11.97
2022-09-17T01:26:35.163Z,12.08
2022-09-17T01:31:47.117Z,11.81
2022-09-17T01:37:01.563Z,11.91
2022-09-17T01:42:13.229Z,11.86
2022-09-17T01:47:22.602Z,11.86
2022-09-17T01:52:28.937Z,11.99
2022-09-17T01:57:36.619Z,11.96
2022-09-17T02:02:45.365Z,11.91
2022-09-17T02:07:53.297Z,11.92
2022-09-17T02:13:00.401Z,11.89
2022-09-17T02:18:08.668Z,12.02
2022-09-17T02:23:16.627Z,11.86
2022-09-17T02:28:27.788Z,12.27
2022-09-17T02:33:34.649Z,12.09
2022-09-17T02:38:39.438Z,12.04
2022-09-17T02:43:51.557Z,12.41
2022-09-17T02:49:10.169Z,12.07
2022-09-17T02:54:19.279Z,11.82
2022-09-17T02:59:26.277Z,11.81
2022-09-17T03:04:31.876Z,11.99
2022-09-17T03:09:34.285Z,11.96
2022-09-17T03:14:36.713Z,11.89
2022-09-17T03:19:40.580Z,11.87
2022-09-17T03:24:43.031Z,11.78
2022-09-17T03:29:45.492Z,11.79
2022-09-17T03:34:49.248Z,11.72
2022-09-17T03:39:51.771Z,11.73
2022-09-17T03:44:54.192Z,11.52
2022-09-17T03:49:57.943Z,11.42
2022-09-17T03:55:00.421Z,11.55
2022-09-17T04:00:03.129Z,11.55
2022-09-17T04:05:12.239Z,11.53
2022-09-17T04:10:14.720Z,11.63
2022-09-17T04:15:17.206Z,11.51
2022-09-17T04:20:20.979Z,11.30
2022-09-17T04:25:23.496Z,11.64
2022-09-17T04:30:26.016Z,11.53
2022-09-17T04:35:29.985Z,11.61
2022-09-17T04:40:32.544Z,11.59
2022-09-17T04:45:34.986Z,11.70
2022-09-17T04:50:38.734Z,11.52
2022-09-17T04:55:41.172Z,11.50
2022-09-17T05:00:43.731Z,11.66
2022-09-17T05:05:47.562Z,11.37
2022-09-17T05:10:51.105Z,11.57
2022-09-17T05:15:56.490Z,11.82
2022-09-17T05:21:00.270Z,11.69
2022-09-17T05:26:02.886Z,11.68
2022-09-17T05:31:05.431Z,11.93
2022-09-17T05:36:09.844Z,12.09
2022-09-17T05:41:12.281Z,12.48
2022-09-17T05:46:14.784Z,12.06
2022-09-17T05:51:20.385Z,12.08
2022-09-17T05:56:23.968Z,12.16
2022-09-17T06:01:26.677Z,12.32
2022-09-17T06:06:30.988Z,12.42
2022-09-17T06:11:33.639Z,12.58
2022-09-17T06:16:36.364Z,12.67
2022-09-17T06:21:40.182Z,12.81
2022-09-17T06:26:42.809Z,13.10
2022-09-17T06:31:46.125Z,13.08
2022-09-17T06:36:51.181Z,13.21
2022-09-17T06:41:55.522Z,13.31
2022-09-17T06:46:58.118Z,13.24
2022-09-17T06:52:02.207Z,13.22
2022-09-17T06:57:04.931Z,13.20
2022-09-17T07:02:08.147Z,13.47
2022-09-17T07:07:11.995Z,13.64
2022-09-17T07:12:14.949Z,13.59
2022-09-17T07:17:17.407Z,13.50
2022-09-17T07:22:21.173Z,13.79
2022-09-17T07:27:23.805Z,14.37
2022-09-17T07:32:26.613Z,14.10
2022-09-17T07:37:30.406Z,13.96
2022-09-17T07:42:33.383Z,13.93
2022-09-17T07:47:40.306Z,14.20
2022-09-17T07:52:48.062Z,13.99
2022-09-17T07:57:53.686Z,14.08
2022-09-17T08:02:56.746Z,14.56
2022-09-17T08:08:00.607Z,14.38
2022-09-17T08:13:03.092Z,14.05
2022-09-17T08:18:05.605Z,14.00
2022-09-17T08:23:09.458Z,14.04
2022-09-17T08:28:11.947Z,14.46
2022-09-17T08:33:14.378Z,14.86
2022-09-17T08:38:18.455Z,14.46
2022-09-17T08:43:21.008Z,14.17
2022-09-17T08:48:26.594Z,14.04
2022-09-17T08:53:56.939Z,13.58
2022-09-17T08:59:21.445Z,13.37
2022-09-17T09:04:33.498Z,13.36
2022-09-17T09:09:41.298Z,13.66
2022-09-17T09:14:50.057Z,13.70
2022-09-17T09:19:54.397Z,14.04
2022-09-17T09:25:13.101Z,14.46
2022-09-17T09:30:18.675Z,14.81
2022-09-17T09:35:23.280Z,14.77
2022-09-17T09:40:47.958Z,15.05
2022-09-17T09:46:08.651Z,15.53
2022-09-17T09:51:24.494Z,16.31
2022-09-17T09:56:39.710Z,15.84
2022-09-17T10:01:45.195Z,15.68
2022-09-17T10:06:50.499Z,15.76
2022-09-17T10:12:07.498Z,15.79
2022-09-17T10:17:16.958Z,15.57
2022-09-17T10:22:24.819Z,15.97
2022-09-17T10:27:29.988Z,16.03
2022-09-17T10:32:32.436Z,16.15
2022-09-17T10:37:44.226Z,17.22
2022-09-17T10:42:48.790Z,18.85
2022-09-17T10:47:52.062Z,22.29
2022-09-17T10:52:57.251Z,25.55
2022-09-17T10:58:24.164Z,22.48
2022-09-17T11:03:53.097Z,23.33
2022-09-17T11:09:11.028Z,22.90
2022-09-17T11:14:28.282Z,25.57
2022-09-17T11:19:41.599Z,26.44
2022-09-17T11:25:08.927Z,27.78
2022-09-17T11:30:17.904Z,29.40
2022-09-17T11:35:25.131Z,25.09
2022-09-17T11:40:36.984Z,26.78
2022-09-17T11:45:46.565Z,25.37
2022-09-17T11:50:54.434Z,27.77
2022-09-17T11:56:00.811Z,28.63
2022-09-17T12:01:09.464Z,30.51
2022-09-17T12:06:17.328Z,30.68
2022-09-17T12:11:23.892Z,30.00
2022-09-17T12:16:32.864Z,30.35
2022-09-17T12:21:42.968Z,28.77
2022-09-17T12:26:59.367Z,27.65
2022-09-17T12:32:14.617Z,26.14
2022-09-17T12:37:25.920Z,21.70
2022-09-17T12:42:48.567Z,22.03
2022-09-17T12:48:24.708Z,26.01
2022-09-17T12:53:31.726Z,22.90
2022-09-17T12:58:56.409Z,20.76
2022-09-17T13:04:29.796Z,25.23
2022-09-17T13:10:13.731Z,27.53
2022-09-17T13:15:31.655Z,25.25
2022-09-17T13:20:43.133Z,28.33
2022-09-17T13:25:53.425Z,27.58
2022-09-17T13:30:57.957Z,28.38
2022-09-17T13:36:03.684Z,30.19
2022-09-17T13:41:20.398Z,30.16
2022-09-17T13:46:24.982Z,29.02
2022-09-17T13:51:57.321Z,28.80
2022-09-17T13:57:10.129Z,26.90
2022-09-17T14:02:35.470Z,29.55
2022-09-17T14:07:58.899Z,28.09
2022-09-17T14:13:28.490Z,23.19
2022-09-17T14:18:37.286Z,23.60
2022-09-17T14:23:46.371Z,22.62
2022-09-17T14:28:55.492Z,19.60
2022-09-17T14:33:58.550Z,23.73
2022-09-17T14:39:03.770Z,26.41
2022-09-17T14:44:11.354Z,24.17
2022-09-17T14:49:16.066Z,23.30
2022-09-17T14:54:26.104Z,23.90
2022-09-17T14:59:50.211Z,22.33
2022-09-17T15:04:52.594Z,19.07
2022-09-17T15:10:07.565Z,18.99
2022-09-17T15:15:19.303Z,18.43
2022-09-17T15:20:24.933Z,17.73
2022-09-17T15:25:32.333Z,17.86
2022-09-17T15:30:34.898Z,17.18
2022-09-17T15:35:37.372Z,16.69
2022-09-17T15:40:42.637Z,15.54
2022-09-17T15:45:45.436Z,14.58
2022-09-17T15:50:53.218Z,14.50
2022-09-17T15:56:09.532Z,13.92
2022-09-17T16:01:54.056Z,13.73
2022-09-17T16:07:03.894Z,14.42
2022-09-17T16:12:08.112Z,13.96
2022-09-17T16:17:22.980Z,14.15
2022-09-17T16:22:26.405Z,14.21
2022-09-17T16:27:33.817Z,14.23
2022-09-17T16:32:36.541Z,14.66
2022-09-17T16:37:39.011Z,14.30
2022-09-17T16:42:42.865Z,13.89
2022-09-17T16:47:45.351Z,13.99
2022-09-17T16:52:47.851Z,13.79
2022-09-17T16:57:51.923Z,14.09
2022-09-17T17:02:57.275Z,13.87
2022-09-17T17:08:03.242Z,14.21
2022-09-17T17:13:10.966Z,14.23
2022-09-17T17:18:13.446Z,13.62
2022-09-17T17:23:16.062Z,13.40
2022-09-17T17:28:20.297Z,13.80
2022-09-17T17:33:22.736Z,14.16
2022-09-17T17:38:25.281Z,14.15
2022-09-17T17:43:29.006Z,12.42
2022-09-17T17:48:31.461Z,11.39
2022-09-17T17:53:34.304Z,10.56
2022-09-17T17:58:38.586Z,10.16
2022-09-17T18:03:41.415Z,9.95
2022-09-17T18:08:45.535Z,9.90
2022-09-17T18:13:52.144Z,10.35
2022-09-17T18:18:57.140Z,10.26
2022-09-17T18:23:59.749Z,10.33
2022-09-17T18:29:07.721Z,10.68
2022-09-17T18:34:13.144Z,10.05
2022-09-17T18:39:56.466Z,10.03
2022-09-17T18:44:40.273Z,10.28
2022-09-17T18:49:42.676Z,10.21
2022-09-17T18:54:45.904Z,10.50
2022-09-17T18:59:50.516Z,10.16
2022-09-17T19:04:53.739Z,10.20
2022-09-17T19:09:57.612Z,10.43
2022-09-17T19:15:01.607Z,10.25
2022-09-17T19:20:05.612Z,10.68
2022-09-17T19:25:09.438Z,10.84
2022-09-17T19:30:14.582Z,10.61
2022-09-17T19:35:17.537Z,10.68
2022-09-17T19:40:20.896Z,10.58
2022-09-17T19:45:25.893Z,10.86
2022-09-17T19:50:35.695Z,10.31
2022-09-17T19:55:39.254Z,10.29
2022-09-17T20:00:43.629Z,10.65
2022-09-17T20:05:46.074Z,10.67
2022-09-17T20:10:50.176Z,10.77
2022-09-17T20:15:53.969Z,10.49
2022-09-17T20:20:56.615Z,10.32
2022-09-17T20:26:10.553Z,10.43
2022-09-17T20:31:16.616Z,10.13
2022-09-17T20:36:20.893Z,10.10
2022-09-17T20:41:23.356Z,10.27
2022-09-17T20:46:29.223Z,10.39
2022-09-17T20:51:32.720Z,10.64
2022-09-17T20:56:36.068Z,10.54
2022-09-17T21:01:40.669Z,10.46
2022-09-17T21:06:43.537Z,10.46
2022-09-17T21:11:47.459Z,10.65
2022-09-17T21:16:51.803Z,10.19
2022-09-17T21:21:54.636Z,9.85
2022-09-17T21:26:57.116Z,9.87
2022-09-17T21:32:01.222Z,9.98
2022-09-17T21:37:04.954Z,9.67
2022-09-17T21:42:07.952Z,9.90
2022-09-17T21:47:12.524Z,9.79
2022-09-17T21:52:15.064Z,9.72
2022-09-17T21:57:17.514Z,9.83
2022-09-17T22:02:21.232Z,9.78
2022-09-17T22:07:23.642Z,9.84
2022-09-17T22:12:26.045Z,9.92
2022-09-17T22:17:29.989Z,9.83
2022-09-17T22:22:32.479Z,9.64
2022-09-17T22:27:35.123Z,9.64
2022-09-17T22:32:39.195Z,10.10
2022-09-17T22:37:41.663Z,9.94
2022-09-17T22:42:44.096Z,10.17
2022-09-17T22:47:47.845Z,10.04
2022-09-17T22:52:50.375Z,9.94
2022-09-17T22:57:52.856Z,10.13
2022-09-17T23:02:56.613Z,10.20
2022-09-17T23:07:59.095Z,10.10
2022-09-17T23:13:01.547Z,10.10
2022-09-17T23:18:05.798Z,10.30
2022-09-17T23:23:08.266Z,10.04
2022-09-17T23:28:13.420Z,10.18
2022-09-17T23:33:17.192Z,10.14
2022-09-17T23:38:19.645Z,10.16
2022-09-17T23:43:22.298Z,10.32
2022-09-17T23:48:26.134Z,10.39
2022-09-17T23:53:30.333Z,10.27
2022-09-17T23:58:34.224Z,10.21
